^^
Grace C. Lehan Memorial Weather Station Historical Data
Daily Summary for January 21, 2021 Units:  Metric    English   Both
Daily Weekly Monthly Yearly
  High: Low: Average:
Temperature: 2.9 °C -6.7 °C -1.7 °C
Dew Point: -3.8 °C -11.4 °C -7 °C
Humidity: 78% 56.1% 67%
Wind Speed: 6.3km/h 0km/h 0.5km/h
Wind Gust: 20.9km/h - -
Wind- - SW
Pressure: 1015.8 hPa 1001.2 hPa -
Precipitation: 0 mm    
 
 
Tabular Data for January 21, 2021
Time Temperature Dew Point Pressure Wind Wind Speed Wind Gust Humidity Rainfall Rate (Hourly) solar
00:04 -4.7 °C -11.4 °C 1015.8 hPa WNW 4 km/h 16.1 km/h 59.1% 0 mm 0 W/m2
00:09 -4.7 °C -11.2 °C 1015.8 hPa WNW 3.2 km/h 11.3 km/h 60% 0 mm 0 W/m2
00:14 -4.7 °C -11.3 °C 1015.8 hPa WNW 0.3 km/h 11.3 km/h 60% 0 mm 0 W/m2
00:19 -4.7 °C -11.3 °C 1015.8 hPa WNW 3.5 km/h 11.3 km/h 60% 0 mm 0 W/m2
00:24 -4.7 °C -11.3 °C 1015.8 hPa Calm   11.3 km/h 60% 0 mm 0 W/m2
00:29 -4.8 °C -11.2 °C 1015.8 hPa West 0.2 km/h 11.3 km/h 60.9% 0 mm 0 W/m2
00:34 -4.8 °C -11.2 °C 1015.8 hPa West 1 km/h 11.3 km/h 61% 0 mm 0 W/m2
00:39 -4.8 °C -11.2 °C 1015.8 hPa WNW 1.4 km/h 11.3 km/h 61% 0 mm 0 W/m2
00:44 -4.8 °C -11.2 °C 1015.8 hPa WSW 3.2 km/h 11.3 km/h 60.8% 0 mm 0 W/m2
00:49 -4.8 °C -11.2 °C 1015.8 hPa Calm   11.3 km/h 61% 0 mm 0 W/m2
00:54 -4.8 °C -11.2 °C 1015.8 hPa Calm   11.3 km/h 61% 0 mm 0 W/m2
00:59 -4.8 °C -11.2 °C 1015.8 hPa West 0.3 km/h 11.3 km/h 61% 0 mm 0 W/m2
01:04 -4.8 °C -11 °C 1015.8 hPa West 0.6 km/h 11.3 km/h 61.8% 0 mm 0 W/m2
01:09 -4.8 °C -11 °C 1015.8 hPa WNW 1.6 km/h 9.7 km/h 62% 0 mm 0 W/m2
01:14 -4.8 °C -11 °C 1015.8 hPa NW 0.3 km/h 9.7 km/h 62% 0 mm 0 W/m2
01:19 -4.8 °C -11 °C 1015.8 hPa NW 1.1 km/h 9.7 km/h 62% 0 mm 0 W/m2
01:24 -4.9 °C -11 °C 1015.8 hPa NW 0.2 km/h 9.7 km/h 62% 0 mm 0 W/m2
01:29 -4.9 °C -11.1 °C 1015.8 hPa NW 1.8 km/h 9.7 km/h 62% 0 mm 0 W/m2
01:34 -4.9 °C -11.1 °C 1015.8 hPa Calm   9.7 km/h 62% 0 mm 0 W/m2
01:39 -4.9 °C -11.1 °C 1015.8 hPa Calm     62% 0 mm 0 W/m2
01:44 -5 °C -11.1 °C 1015.5 hPa Calm     62% 0 mm 0 W/m2
01:49 -5 °C -11.2 °C 1015.5 hPa Calm     62% 0 mm 0 W/m2
01:54 -5.1 °C -11.1 °C 1015.5 hPa Calm     62.3% 0 mm 0 W/m2
01:59 -5.1 °C -11 °C 1015.5 hPa Calm     63% 0 mm 0 W/m2
02:04 -5.1 °C -11.1 °C 1015.1 hPa Calm     63% 0 mm 0 W/m2
02:09 -5.2 °C -11.1 °C 1014.8 hPa Calm     63% 0 mm 0 W/m2
02:14 -5.2 °C -10.9 °C 1014.8 hPa Calm     64.1% 0 mm 0 W/m2
02:17 -5.3 °C -10.8 °C 1014.4 hPa Calm     65% 0 mm 0 W/m2
03:00 -5.5 °C -10.7 °C 1013.8 hPa Calm     67% 0 mm 0 W/m2
03:30 -5.6 °C -9.9 °C 1013.8 hPa Calm     71% 0 mm 0 W/m2
04:04 -5.7 °C -10.1 °C 1013.8 hPa Calm     71% 0 mm 0 W/m2
04:09 -5.7 °C -10 °C 1013.1 hPa Calm     71.8% 0 mm 0 W/m2
04:14 -5.7 °C -9.9 °C 1013.1 hPa Calm     72.1% 0 mm 0 W/m2
04:19 -5.7 °C -9.8 °C 1012.8 hPa Calm     73% 0 mm 0 W/m2
04:24 -5.8 °C -9.8 °C 1012.8 hPa Calm     73% 0 mm 0 W/m2
04:29 -5.8 °C -9.8 °C 1012.8 hPa Calm     73% 0 mm 0 W/m2
04:34 -5.8 °C -9.9 °C 1012.8 hPa Calm     73% 0 mm 0 W/m2
04:39 -5.8 °C -9.8 °C 1012.8 hPa Calm     73% 0 mm 0 W/m2
04:44 -5.8 °C -9.9 °C 1012.8 hPa Calm     72.6% 0 mm 0 W/m2
04:49 -5.8 °C -9.7 °C 1012.4 hPa Calm     73.7% 0 mm 0 W/m2
04:54 -5.7 °C -9.4 °C 1012.4 hPa Calm     75% 0 mm 0 W/m2
04:59 -5.8 °C -9.5 °C 1012.4 hPa Calm     75% 0 mm 0 W/m2
05:04 -5.8 °C -9.5 °C 1012.1 hPa Calm     75% 0 mm 0 W/m2
05:09 -5.9 °C -9.7 °C 1011.7 hPa Calm     74.3% 0 mm 0 W/m2
05:14 -5.9 °C -9.9 °C 1011.7 hPa Calm     73.7% 0 mm 0 W/m2
05:19 -5.9 °C -10 °C 1011.7 hPa Calm     73.2% 0 mm 0 W/m2
05:24 -6 °C -10 °C 1011.7 hPa Calm     73.4% 0 mm 0 W/m2
05:29 -6.1 °C -9.9 °C 1012.1 hPa Calm     74% 0 mm 0 W/m2
05:34 -6.1 °C -10 °C 1011.7 hPa Calm     74% 0 mm 0 W/m2
05:39 -6.2 °C -10 °C 1011.4 hPa Calm     74.5% 0 mm 0 W/m2
05:44 -6.3 °C -10 °C 1011.4 hPa Calm     75% 0 mm 0 W/m2
05:49 -6.3 °C -10.1 °C 1011.4 hPa Calm     75% 0 mm 0 W/m2
05:54 -6.4 °C -10.1 °C 1011.4 hPa Calm     75% 0 mm 0 W/m2
05:59 -6.4 °C -10.2 °C 1011.4 hPa Calm     75% 0 mm 0 W/m2
06:04 -6.5 °C -10.2 °C 1011.4 hPa Calm     75% 0 mm 0 W/m2
06:09 -6.6 °C -10.2 °C 1011.4 hPa Calm     75.4% 0 mm 0 W/m2
06:14 -6.6 °C -10.1 °C 1011.4 hPa Calm     76% 0 mm 0 W/m2
06:19 -6.6 °C -10.1 °C 1011.4 hPa Calm     76.7% 0 mm 0 W/m2
06:24 -6.7 °C -10.1 °C 1011.1 hPa Calm     77% 0 mm 0 W/m2
06:29 -6.7 °C -10 °C 1011.4 hPa Calm     77.6% 0 mm 0 W/m2
06:34 -6.7 °C -9.9 °C 1011.1 hPa Calm     78% 0 mm 0 W/m2
06:39 -6.7 °C -9.9 °C 1011.1 hPa Calm     78% 0 mm 0 W/m2
06:44 -6.7 °C -9.8 °C 1011.4 hPa Calm     78% 0 mm 0 W/m2
06:49 -6.7 °C -9.8 °C 1011.1 hPa Calm     78% 0 mm 0 W/m2
06:54 -6.7 °C -10 °C 1011.1 hPa Calm     77.2% 0 mm 0 W/m2
06:59 -6.6 °C -10 °C 1010.7 hPa Calm     76.9% 0 mm 0 W/m2
07:04 -6.6 °C -10.1 °C 1010.4 hPa Calm     76% 0 mm 0 W/m2
07:09 -6.5 °C -10.2 °C 1010.4 hPa Calm     75.2% 0 mm 0 W/m2
07:14 -6.4 °C -10.1 °C 1010.4 hPa Calm     75% 0 mm 0 W/m2
07:19 -6.4 °C -10 °C 1010.4 hPa Calm     75.5% 0 mm 7 W/m2
07:24 -6.3 °C -9.9 °C 1010.4 hPa Calm     76% 0 mm 11 W/m2
07:29 -6.3 °C -9.8 °C 1010.4 hPa Calm     76% 0 mm 19 W/m2
07:34 -6.3 °C -9.8 °C 1010.4 hPa Calm     76% 0 mm 21 W/m2
07:39 -6.3 °C -9.8 °C 1010.4 hPa Calm     76% 0 mm 35 W/m2
07:44 -6.3 °C -9.7 °C 1010.4 hPa Calm     76.5% 0 mm 35 W/m2
07:49 -6.2 °C -9.6 °C 1010.4 hPa Calm     77% 0 mm 33 W/m2
07:54 -6.2 °C -9.5 °C 1010.4 hPa Calm     77% 0 mm 53 W/m2
07:59 -6.1 °C -9.4 °C 1010.4 hPa Calm     77% 0 mm 86 W/m2
08:04 -5.8 °C -9 °C 1010.4 hPa Calm     78% 0 mm 58 W/m2
08:09 -5.7 °C -9.1 °C 1010.4 hPa Calm   4.8 km/h 77% 0 mm 54 W/m2
08:14 -5.5 °C -9.2 °C 1010.4 hPa Calm   4.8 km/h 75% 0 mm 37 W/m2
08:19 -5.3 °C -9.4 °C 1010.4 hPa Calm   4.8 km/h 73.1% 0 mm 32 W/m2
08:24 -5.3 °C -9.7 °C 1010 hPa Calm   4.8 km/h 71.3% 0 mm 40 W/m2
08:29 -5.3 °C -9.7 °C 1009.7 hPa Calm   4.8 km/h 71% 0 mm 81 W/m2
08:34 -5.2 °C -9.7 °C 1009.7 hPa Calm   4.8 km/h 71% 0 mm 79 W/m2
08:39 -5.2 °C -9.6 °C 1009.7 hPa Calm     71% 0 mm 100 W/m2
08:44 -5 °C -9.4 °C 1009.4 hPa Calm     71.3% 0 mm 111 W/m2
08:49 -4.9 °C -9.4 °C 1009 hPa Calm     70.4% 0 mm 178 W/m2
08:54 -4.7 °C -9.4 °C 1009 hPa NW 0.2 km/h 3.2 km/h 69.9% 0 mm 253 W/m2
08:59 -4.4 °C -9.3 °C 1009 hPa WNW 0.5 km/h 4.8 km/h 68.8% 0 mm 204 W/m2
09:04 -4.2 °C -9.3 °C 1009.4 hPa WSW 0.2 km/h 4.8 km/h 67.5% 0 mm 121 W/m2
09:09 -3.9 °C -9.2 °C 1009 hPa WSW 0.3 km/h 3.2 km/h 67.1% 0 mm 146 W/m2
09:14 -3.8 °C -8.8 °C 1009 hPa SW 0.6 km/h 4.8 km/h 68% 0 mm 146 W/m2
09:19 -3.7 °C -9 °C 1009 hPa SW 0.3 km/h 4.8 km/h 66.5% 0 mm 134 W/m2
09:24 -3.5 °C -8.8 °C 1009 hPa SSW 0.6 km/h 4.8 km/h 67% 0 mm 128 W/m2
09:29 -3.4 °C -8.8 °C 1009 hPa SSW 0.2 km/h 4.8 km/h 66.1% 0 mm 114 W/m2
09:34 -3.3 °C -8.6 °C 1008.7 hPa SSW 0.3 km/h 4.8 km/h 66.8% 0 mm 111 W/m2
09:39 -3.2 °C -8.4 °C 1008.7 hPa Calm   4.8 km/h 67% 0 mm 107 W/m2
09:44 -3.1 °C -8.3 °C 1008.7 hPa South 1 km/h 6.4 km/h 67% 0 mm 107 W/m2
09:49 -2.9 °C -8.2 °C 1008.4 hPa South 1 km/h 6.4 km/h 67% 0 mm 121 W/m2
09:54 -2.7 °C -7.9 °C 1008.4 hPa SSW 1 km/h 8 km/h 67.5% 0 mm 113 W/m2
09:59 -2.6 °C -7.8 °C 1008.4 hPa SSW 0.2 km/h 8 km/h 67.2% 0 mm 109 W/m2
10:04 -2.4 °C -7.7 °C 1008.4 hPa SSW 0.5 km/h 8 km/h 67% 0 mm 113 W/m2
10:09 -2.3 °C -7.6 °C 1008.4 hPa SSW 0.8 km/h 4.8 km/h 66.7% 0 mm 123 W/m2
10:14 -2.1 °C -7.2 °C 1008 hPa SSW 0.5 km/h 4.8 km/h 67.9% 0 mm 130 W/m2
10:19 -1.9 °C -7.2 °C 1008 hPa SSW 0.2 km/h 4.8 km/h 67% 0 mm 125 W/m2
10:24 -1.7 °C -7.1 °C 1008 hPa SSW 1 km/h 4.8 km/h 67% 0 mm 127 W/m2
10:29 -1.6 °C -6.8 °C 1008 hPa SW 1.4 km/h 14.5 km/h 67% 0 mm 127 W/m2
10:34 -1.3 °C -6.7 °C 1008 hPa SW 1 km/h 14.5 km/h 67% 0 mm 107 W/m2
10:39 -1.2 °C -6.6 °C 1008 hPa SW 1.1 km/h 6.4 km/h 67% 0 mm 77 W/m2
10:44 -1.1 °C -6.4 °C 1008 hPa Calm   6.4 km/h 67% 0 mm 56 W/m2
10:49 -1 °C -6.3 °C 1007.7 hPa SW 0.2 km/h 6.4 km/h 67% 0 mm 54 W/m2
10:54 -0.9 °C -6.2 °C 1007.7 hPa SW 1 km/h 6.4 km/h 67.3% 0 mm 46 W/m2
10:59 -0.8 °C -6 °C 1007.7 hPa SW 1.1 km/h 6.4 km/h 68% 0 mm 40 W/m2
11:04 -0.8 °C -6.1 °C 1007.7 hPa SW 1.8 km/h 6.4 km/h 67.4% 0 mm 42 W/m2
11:09 -0.7 °C -6.1 °C 1007.3 hPa SW 0.5 km/h 6.4 km/h 67% 0 mm 47 W/m2
11:14 -0.7 °C -6 °C 1007.3 hPa SW 0.3 km/h 6.4 km/h 67% 0 mm 60 W/m2
11:19 -0.6 °C -5.8 °C 1007 hPa SW 1.4 km/h 8 km/h 67.9% 0 mm 95 W/m2
11:24 -0.5 °C -5.9 °C 1007 hPa SW 2.1 km/h 9.7 km/h 67% 0 mm 127 W/m2
11:29 -0.4 °C -5.8 °C 1006.7 hPa SW 1.9 km/h 11.3 km/h 67% 0 mm 132 W/m2
11:34 -0.2 °C -5.6 °C 1006.3 hPa SSW 1.9 km/h 11.3 km/h 66.9% 0 mm 132 W/m2
11:39 -0.1 °C -5.7 °C 1006 hPa SSW 3.9 km/h 14.5 km/h 66% 0 mm 141 W/m2
11:44 0.1 °C -5.7 °C 1006 hPa SW 6.3 km/h 14.5 km/h 65.1% 0 mm 158 W/m2
11:47 0.1 °C -5.8 °C 1005.6 hPa SW 5.6 km/h 14.5 km/h 64.2% 0 mm 176 W/m2
12:04 0.7 °C -5.5 °C 1005.3 hPa SW 1.6 km/h 1.6 km/h 63% 0 mm 192 W/m2
12:09 0.8 °C -5.4 °C 1005.3 hPa SW 2.6 km/h 9.7 km/h 63% 0 mm 192 W/m2
12:14 0.9 °C -5.4 °C 1005.3 hPa SW 0.6 km/h 9.7 km/h 62.8% 0 mm 90 W/m2
12:19 0.9 °C -5.4 °C 1005.3 hPa SW 1.9 km/h 9.7 km/h 62.6% 0 mm 62 W/m2
12:24 0.9 °C -5.5 °C 1005.3 hPa SW 5.1 km/h 20.9 km/h 62% 0 mm 53 W/m2
12:29 0.8 °C -5.8 °C 1005 hPa SW 5.6 km/h 20.9 km/h 61.4% 0 mm 56 W/m2
12:34 0.8 °C -5.8 °C 1005 hPa SW 5.1 km/h 20.9 km/h 61.7% 0 mm 54 W/m2
12:39 0.7 °C -5.9 °C 1005 hPa SW 4 km/h 11.3 km/h 61.3% 0 mm 47 W/m2
12:44 0.7 °C -5.8 °C 1004.6 hPa SW 2.3 km/h 11.3 km/h 62% 0 mm 40 W/m2
12:49 0.7 °C -5.8 °C 1004.6 hPa SW 4.5 km/h 17.7 km/h 62% 0 mm 44 W/m2
12:54 0.7 °C -5.9 °C 1004.6 hPa SW 2.4 km/h 17.7 km/h 61.2% 0 mm 40 W/m2
12:59 0.7 °C -5.7 °C 1004.3 hPa SW 1.1 km/h 17.7 km/h 62% 0 mm 49 W/m2
13:04 0.7 °C -5.7 °C 1004.3 hPa SW 1 km/h 17.7 km/h 62% 0 mm 49 W/m2
13:09 0.8 °C -5.8 °C 1004.3 hPa SW 4.8 km/h 14.5 km/h 61.3% 0 mm 60 W/m2
13:14 0.8 °C -5.8 °C 1004.3 hPa SSW 1.8 km/h 14.5 km/h 61% 0 mm 91 W/m2
13:19 0.9 °C -5.7 °C 1003.9 hPa SSW 0.2 km/h 14.5 km/h 61.2% 0 mm 97 W/m2
13:24 1 °C -5.5 °C 1003.9 hPa SSW 1.1 km/h 14.5 km/h 61.7% 0 mm 102 W/m2
13:29 1.1 °C -5.6 °C 1003.6 hPa SSW 0.3 km/h 14.5 km/h 61% 0 mm 142 W/m2
13:34 1.3 °C -5.6 °C 1003.6 hPa SW 2.1 km/h 14.5 km/h 60.5% 0 mm 160 W/m2
13:39 1.4 °C -5.5 °C 1003.6 hPa SW 1.6 km/h 9.7 km/h 59.8% 0 mm 160 W/m2
13:44 1.6 °C -5.3 °C 1003.3 hPa SW 1.8 km/h 14.5 km/h 59.9% 0 mm 156 W/m2
13:49 1.7 °C -5.4 °C 1003.3 hPa SW 2.6 km/h 14.5 km/h 59% 0 mm 134 W/m2
13:54 1.8 °C -5.3 °C 1003.3 hPa SW 0.5 km/h 14.5 km/h 59% 0 mm 132 W/m2
13:59 1.9 °C -5.2 °C 1003.3 hPa SW 1.6 km/h 14.5 km/h 59% 0 mm 137 W/m2
14:04 2 °C -5.3 °C 1003.3 hPa SW 3.7 km/h 14.5 km/h 58.3% 0 mm 142 W/m2
14:09 2.1 °C -5.3 °C 1002.9 hPa SW 1.8 km/h 11.3 km/h 58% 0 mm 137 W/m2
14:14 2.2 °C -5.2 °C 1003.3 hPa SW 1.1 km/h 11.3 km/h 58% 0 mm 139 W/m2
14:19 2.3 °C -5.1 °C 1002.9 hPa SW 1.9 km/h 11.3 km/h 58.3% 0 mm 135 W/m2
14:24 2.4 °C -5.3 °C 1002.9 hPa Calm   11.3 km/h 57% 0 mm 134 W/m2
14:29 2.4 °C -5.1 °C 1003.3 hPa Calm   11.3 km/h 57.7% 0 mm 132 W/m2
14:34 2.5 °C -4.8 °C 1003.3 hPa SW 0.2 km/h 11.3 km/h 58.2% 0 mm 98 W/m2
14:39 2.6 °C -4.9 °C 1003.3 hPa SW 0.6 km/h 4.8 km/h 57.6% 0 mm 97 W/m2
14:44 2.6 °C -5.1 °C 1002.9 hPa SW 0.8 km/h 4.8 km/h 56.8% 0 mm 77 W/m2
14:49 2.6 °C -5.2 °C 1002.9 hPa SW 0.5 km/h 6.4 km/h 56.4% 0 mm 74 W/m2
14:54 2.6 °C -4.9 °C 1002.9 hPa SW 1.1 km/h 6.4 km/h 57.4% 0 mm 84 W/m2
14:59 2.6 °C -5.1 °C 1002.9 hPa SW 2.4 km/h 12.9 km/h 56.9% 0 mm 91 W/m2
15:04 2.6 °C -5.1 °C 1002.9 hPa Calm   12.9 km/h 56.9% 0 mm 102 W/m2
15:09 2.6 °C -4.9 °C 1002.9 hPa SW 1.9 km/h 6.4 km/h 57.7% 0 mm 74 W/m2
15:14 2.7 °C -5 °C 1002.9 hPa SW 0.2 km/h 6.4 km/h 57% 0 mm 83 W/m2
15:19 2.7 °C -4.9 °C 1002.9 hPa SW 0.8 km/h 6.4 km/h 57.2% 0 mm 88 W/m2
15:24 2.8 °C -4.9 °C 1002.9 hPa SW 0.5 km/h 6.4 km/h 57.1% 0 mm 84 W/m2
15:29 2.8 °C -4.8 °C 1002.9 hPa Calm   6.4 km/h 57.3% 0 mm 63 W/m2
15:34 2.9 °C -4.6 °C 1002.9 hPa SW 0.3 km/h 6.4 km/h 57.9% 0 mm 42 W/m2
15:39 2.9 °C -4.9 °C 1002.6 hPa SW 0.3 km/h 4.8 km/h 56.5% 0 mm 54 W/m2
15:44 2.8 °C -5.1 °C 1002.6 hPa Calm   4.8 km/h 56.1% 0 mm 58 W/m2
15:49 2.8 °C -4.8 °C 1002.6 hPa Calm   4.8 km/h 57.1% 0 mm 58 W/m2
15:54 2.8 °C -4.7 °C 1002.6 hPa SW 0.2 km/h 4.8 km/h 58% 0 mm 51 W/m2
15:58 2.8 °C -4.9 °C 1002.6 hPa SW 0.5 km/h 4.8 km/h 57% 0 mm 42 W/m2
16:04 2.8 °C -4.7 °C 1002.6 hPa Calm     58% 0 mm 25 W/m2
16:09 2.8 °C -4.7 °C 1002.6 hPa SW 0.3 km/h 3.2 km/h 58% 0 mm 23 W/m2
16:14 2.7 °C -4.7 °C 1002.6 hPa SW 0.2 km/h 3.2 km/h 58% 0 mm 19 W/m2
16:19 2.7 °C -4.7 °C 1002.6 hPa SW 0.5 km/h 3.2 km/h 58% 0 mm 16 W/m2
16:24 2.7 °C -4.8 °C 1002.6 hPa SW 0.2 km/h 3.2 km/h 58% 0 mm 14 W/m2
16:29 2.6 °C -4.8 °C 1002.6 hPa SW 1.4 km/h 9.7 km/h 58.3% 0 mm 12 W/m2
16:34 2.6 °C -4.8 °C 1002.9 hPa Calm   9.7 km/h 58.3% 0 mm 11 W/m2
16:39 2.5 °C -4.7 °C 1002.9 hPa Calm   1.6 km/h 59% 0 mm 9 W/m2
16:44 2.4 °C -4.6 °C 1002.9 hPa Calm   1.6 km/h 59.5% 0 mm 7 W/m2
16:49 2.4 °C -4.8 °C 1002.9 hPa Calm   1.6 km/h 59% 0 mm 5 W/m2
16:54 2.3 °C -4.9 °C 1002.9 hPa Calm   1.6 km/h 59% 0 mm 0 W/m2
16:59 2.2 °C -4.9 °C 1002.6 hPa Calm   1.6 km/h 59.2% 0 mm 0 W/m2
17:04 2.1 °C -4.9 °C 1002.9 hPa Calm   1.6 km/h 60% 0 mm 0 W/m2
17:09 1.9 °C -5 °C 1002.9 hPa Calm     60% 0 mm 0 W/m2
17:14 1.8 °C -5.1 °C 1002.6 hPa Calm     60.3% 0 mm 0 W/m2
17:19 1.7 °C -5 °C 1002.9 hPa Calm     61% 0 mm 0 W/m2
17:24 1.7 °C -5.1 °C 1002.9 hPa Calm     61% 0 mm 0 W/m2
17:29 1.6 °C -5.1 °C 1002.9 hPa Calm     61.4% 0 mm 0 W/m2
17:34 1.5 °C -4.9 °C 1002.9 hPa Calm     62% 0 mm 0 W/m2
17:39 1.5 °C -5 °C 1002.9 hPa Calm     62% 0 mm 0 W/m2
17:44 1.5 °C -5 °C 1002.9 hPa Calm     62% 0 mm 0 W/m2
17:49 1.5 °C -5 °C 1002.9 hPa Calm     62% 0 mm 0 W/m2
17:54 1.5 °C -5 °C 1002.9 hPa Calm     62% 0 mm 0 W/m2
17:59 1.3 °C -5.1 °C 1002.9 hPa Calm     62.2% 0 mm 0 W/m2
18:04 1.1 °C -5.1 °C 1002.9 hPa Calm     63.1% 0 mm 0 W/m2
18:09 0.9 °C -5 °C 1002.9 hPa Calm     64.5% 0 mm 0 W/m2
18:14 0.8 °C -5.2 °C 1002.9 hPa Calm     64% 0 mm 0 W/m2
18:19 0.6 °C -5.3 °C 1002.9 hPa Calm     64.6% 0 mm 0 W/m2
18:24 0.5 °C -5.2 °C 1002.9 hPa Calm     65.8% 0 mm 0 W/m2
18:29 0.4 °C -5.2 °C 1002.9 hPa Calm     66% 0 mm 0 W/m2
18:34 0.2 °C -5.3 °C 1002.9 hPa Calm     66.4% 0 mm 0 W/m2
18:39 0.1 °C -5.2 °C 1002.9 hPa Calm     67.2% 0 mm 0 W/m2
18:44 -0.1 °C -5.2 °C 1002.9 hPa Calm     68% 0 mm 0 W/m2
18:49 -0.2 °C -5.3 °C 1002.9 hPa Calm     68.1% 0 mm 0 W/m2
18:54 -0.3 °C -5.2 °C 1002.9 hPa Calm     69.4% 0 mm 0 W/m2
18:59 -0.4 °C -5.2 °C 1002.9 hPa Calm     70.3% 0 mm 0 W/m2
19:04 -0.5 °C -5.1 °C 1002.9 hPa Calm     71% 0 mm 0 W/m2
19:09 -0.6 °C -5.1 °C 1002.9 hPa Calm   1.6 km/h 71.7% 0 mm 0 W/m2
19:14 -0.7 °C -5.2 °C 1002.9 hPa WSW 1.4 km/h 8 km/h 72% 0 mm 0 W/m2
19:19 -0.8 °C -5.1 °C 1002.9 hPa WSW 0.8 km/h 8 km/h 73% 0 mm 0 W/m2
19:24 -0.8 °C -5.1 °C 1002.9 hPa WSW 1 km/h 11.3 km/h 73% 0 mm 0 W/m2
19:29 -0.8 °C -5.1 °C 1002.9 hPa Calm   11.3 km/h 72.4% 0 mm 0 W/m2
19:34 -0.6 °C -5.1 °C 1002.9 hPa Calm   11.3 km/h 72% 0 mm 0 W/m2
19:39 -0.5 °C -4.9 °C 1002.9 hPa Calm     71.9% 0 mm 0 W/m2
19:44 -0.4 °C -4.9 °C 1002.9 hPa Calm     71.2% 0 mm 0 W/m2
19:49 -0.3 °C -4.9 °C 1002.9 hPa Calm     71% 0 mm 0 W/m2
19:54 -0.2 °C -4.8 °C 1002.9 hPa Calm     71% 0 mm 0 W/m2
19:59 -0.1 °C -4.8 °C 1002.9 hPa Calm     70.6% 0 mm 0 W/m2
20:04 -0.1 °C -4.9 °C 1002.9 hPa Calm     70% 0 mm 0 W/m2
20:09 0 °C -4.8 °C 1002.9 hPa Calm     70% 0 mm 0 W/m2
20:14 0.1 °C -4.8 °C 1002.6 hPa Calm     69.6% 0 mm 0 W/m2
20:19 0.1 °C -4.9 °C 1002.6 hPa Calm     69% 0 mm 0 W/m2
20:24 0.2 °C -4.8 °C 1002.6 hPa Calm     69% 0 mm 0 W/m2
20:29 0.3 °C -4.7 °C 1002.3 hPa Calm     69% 0 mm 0 W/m2
20:34 0.3 °C -4.8 °C 1002.3 hPa Calm     68.2% 0 mm 0 W/m2
20:39 0.2 °C -4.8 °C 1002.3 hPa Calm     68.6% 0 mm 0 W/m2
20:44 0.1 °C -4.9 °C 1002.3 hPa Calm     69.1% 0 mm 0 W/m2
20:49 -0.2 °C -5 °C 1002.3 hPa Calm     70% 0 mm 0 W/m2
20:54 -0.3 °C -5.1 °C 1002.3 hPa Calm     70% 0 mm 0 W/m2
20:59 -0.4 °C -5.1 °C 1002.3 hPa Calm     71% 0 mm 0 W/m2
21:04 -0.6 °C -5.1 °C 1002.3 hPa Calm     71.7% 0 mm 0 W/m2
21:09 -0.6 °C -5 °C 1002.3 hPa Calm     72.1% 0 mm 0 W/m2
21:14 -0.7 °C -4.9 °C 1002.3 hPa Calm     73% 0 mm 0 W/m2
21:19 -0.7 °C -4.9 °C 1002.3 hPa Calm     73% 0 mm 0 W/m2
21:24 -0.7 °C -4.9 °C 1002.3 hPa Calm     73% 0 mm 0 W/m2
21:29 -0.7 °C -4.8 °C 1002.3 hPa Calm     73.9% 0 mm 0 W/m2
21:34 -0.7 °C -4.7 °C 1001.9 hPa Calm     74% 0 mm 0 W/m2
21:39 -0.6 °C -4.8 °C 1001.9 hPa Calm     73.1% 0 mm 0 W/m2
21:44 -0.4 °C -4.7 °C 1001.9 hPa Calm     73% 0 mm 0 W/m2
21:49 -0.3 °C -4.6 °C 1001.9 hPa Calm     73% 0 mm 0 W/m2
21:54 -0.2 °C -4.7 °C 1001.9 hPa Calm     72.1% 0 mm 0 W/m2
21:59 -0.2 °C -4.6 °C 1001.6 hPa Calm     72% 0 mm 0 W/m2
22:04 -0.1 °C -4.6 °C 1001.6 hPa Calm     71.5% 0 mm 0 W/m2
22:09 0.1 °C -4.4 °C 1001.6 hPa Calm     71.8% 0 mm 0 W/m2
22:14 0.1 °C -4.5 °C 1001.6 hPa Calm     71.2% 0 mm 0 W/m2
22:19 0.1 °C -4.3 °C 1001.6 hPa Calm     72% 0 mm 0 W/m2
22:24 0.1 °C -4.3 °C 1001.6 hPa Calm     72% 0 mm 0 W/m2
22:29 0.1 °C -4.4 °C 1001.6 hPa Calm     72% 0 mm 0 W/m2
22:34 -0.1 °C -4.4 °C 1001.6 hPa Calm     72.8% 0 mm 0 W/m2
22:39 -0.2 °C -4.4 °C 1001.6 hPa Calm     73% 0 mm 0 W/m2
22:44 -0.3 °C -4.4 °C 1001.6 hPa Calm     73.9% 0 mm 0 W/m2
22:49 -0.3 °C -4.3 °C 1001.6 hPa Calm     74.3% 0 mm 0 W/m2
22:54 -0.3 °C -4.2 °C 1001.6 hPa Calm     75% 0 mm 0 W/m2
22:59 -0.3 °C -4.2 °C 1001.6 hPa Calm     75% 0 mm 0 W/m2
23:00 -0.3 °C -4.2 °C 1001.6 hPa Calm     75% 0 mm 0 W/m2
23:09 -0.2 °C -4.2 °C 1001.6 hPa Calm     74% 0 mm 0 W/m2
23:14 -0.1 °C -4.2 °C 1001.6 hPa Calm     74% 0 mm 0 W/m2
23:19 -0.1 °C -4.1 °C 1001.6 hPa Calm   1.6 km/h 74% 0 mm 0 W/m2
23:24 0.1 °C -4.2 °C 1001.6 hPa Calm   1.6 km/h 73.4% 0 mm 0 W/m2
23:29 0.1 °C -4.1 °C 1001.6 hPa Calm   1.6 km/h 73% 0 mm 0 W/m2
23:34 0.2 °C -4.1 °C 1001.2 hPa Calm   1.6 km/h 72.8% 0 mm 0 W/m2
23:39 0.3 °C -4.1 °C 1001.2 hPa Calm     72% 0 mm 0 W/m2
23:44 0.4 °C -4 °C 1001.2 hPa Calm     72.2% 0 mm 0 W/m2
23:49 0.5 °C -3.9 °C 1001.2 hPa Calm   1.6 km/h 72% 0 mm 0 W/m2
23:54 0.6 °C -3.9 °C 1001.2 hPa Calm   1.6 km/h 72% 0 mm 0 W/m2
23:59 0.6 °C -3.8 °C 1001.2 hPa WSW 0.2 km/h 3.2 km/h 72.7% 0 mm 0 W/m2
Hartford County Weather
Compliments of Weather Underground - 2 mb